createdAt,value
2018-07-27T00:00:13.585Z,101787.38
2018-07-27T00:02:41.228Z,101782.33
2018-07-27T00:05:08.906Z,101782.50
2018-07-27T00:07:36.864Z,101776.44
2018-07-27T00:10:05.720Z,101782.39
2018-07-27T00:12:40.201Z,101783.47
2018-07-27T00:15:08.095Z,101779.47
2018-07-27T00:17:35.742Z,101780.48
2018-07-27T00:20:03.849Z,101779.16
2018-07-27T00:22:31.523Z,101782.90
2018-07-27T00:24:59.157Z,101787.52
2018-07-27T00:27:27.200Z,101780.22
2018-07-27T00:29:54.908Z,101785.12
2018-07-27T00:32:22.817Z,101780.60
2018-07-27T00:34:50.478Z,101779.11
2018-07-27T00:37:18.216Z,101780.80
2018-07-27T00:39:45.903Z,101782.13
2018-07-27T00:42:13.565Z,101780.86
2018-07-27T00:44:41.482Z,101784.86
2018-07-27T00:47:09.177Z,101778.38
2018-07-27T00:49:37.153Z,101783.28
2018-07-27T00:52:05.220Z,101788.34
2018-07-27T00:54:32.937Z,101780.30
2018-07-27T00:57:00.873Z,101781.17
2018-07-27T00:59:28.800Z,101775.55
2018-07-27T01:01:56.504Z,101765.98
2018-07-27T01:04:24.213Z,101771.78
2018-07-27T01:06:52.211Z,101773.58
2018-07-27T01:09:20.254Z,101766.02
2018-07-27T01:11:47.865Z,101770.41
2018-07-27T01:14:15.533Z,101769.76
2018-07-27T01:16:43.607Z,101769.11
2018-07-27T01:19:11.560Z,101760.80
2018-07-27T01:21:39.524Z,101764.47
2018-07-27T01:24:07.193Z,101760.13
2018-07-27T01:26:35.190Z,101761.39
2018-07-27T01:29:02.933Z,101701.04
2018-07-27T01:31:30.775Z,101763.78
2018-07-27T01:33:58.398Z,101759.47
2018-07-27T01:36:26.285Z,101757.03
2018-07-27T01:38:53.907Z,101761.16
2018-07-27T01:41:21.886Z,101761.28
2018-07-27T01:43:49.617Z,101761.02
2018-07-27T01:46:17.720Z,101755.53
2018-07-27T01:48:45.351Z,101757.38
2018-07-27T01:51:13.513Z,101759.58
2018-07-27T01:53:41.453Z,101759.03
2018-07-27T01:56:09.152Z,101760.17
2018-07-27T01:58:36.798Z,101760.91
2018-07-27T02:01:05.288Z,101754.78
2018-07-27T02:03:33.000Z,101755.42
2018-07-27T02:06:00.699Z,101757.30
2018-07-27T02:08:28.330Z,101762.67
2018-07-27T02:10:56.589Z,101760.95
2018-07-27T02:13:24.434Z,101764.52
2018-07-27T02:15:52.080Z,101763.13
2018-07-27T02:18:19.748Z,101767.60
2018-07-27T02:20:47.461Z,101763.47
2018-07-27T02:23:15.128Z,101765.34
2018-07-27T02:25:42.764Z,101760.55
2018-07-27T02:28:10.765Z,101762.48
2018-07-27T02:30:38.721Z,101754.35
2018-07-27T02:33:06.405Z,101754.77
2018-07-27T02:35:34.108Z,101753.17
2018-07-27T02:38:01.814Z,101746.53
2018-07-27T02:40:29.679Z,101753.02
2018-07-27T02:42:57.351Z,101745.47
2018-07-27T02:45:25.021Z,101738.02
2018-07-27T02:47:53.022Z,101738.02
2018-07-27T02:50:20.730Z,101733.35
2018-07-27T02:52:48.625Z,101731.71
2018-07-27T02:55:16.419Z,101734.89
2018-07-27T02:57:44.065Z,101731.02
2018-07-27T03:00:11.724Z,101734.09
2018-07-27T03:02:39.375Z,101737.02
2018-07-27T03:05:08.115Z,101732.05
2018-07-27T03:07:36.121Z,101736.94
2018-07-27T03:10:05.020Z,101733.16
2018-07-27T03:12:32.641Z,101720.28
2018-07-27T03:15:00.565Z,101731.84
2018-07-27T03:17:28.539Z,101739.93
2018-07-27T03:19:56.226Z,101734.08
2018-07-27T03:22:24.145Z,101734.67
2018-07-27T03:24:52.329Z,101742.70
2018-07-27T03:27:19.966Z,101735.73
2018-07-27T03:29:47.694Z,101737.69
2018-07-27T03:32:15.579Z,101742.58
2018-07-27T03:34:43.300Z,101738.63
2018-07-27T03:37:11.021Z,101732.80
2018-07-27T03:39:38.928Z,101733.70
2018-07-27T03:42:07.353Z,101733.67
2018-07-27T03:44:34.953Z,101729.30
2018-07-27T03:47:03.172Z,101737.60
2018-07-27T03:49:31.414Z,101731.50
2018-07-27T03:51:59.596Z,101740.06
2018-07-27T03:54:27.632Z,101734.64
2018-07-27T03:56:55.380Z,101737.12
2018-07-27T03:59:23.296Z,101738.66
2018-07-27T04:01:51.231Z,101730.30
2018-07-27T04:04:18.880Z,101737.61
2018-07-27T04:06:46.536Z,101733.77
2018-07-27T04:09:14.526Z,101740.02
2018-07-27T04:11:42.505Z,101738.03
2018-07-27T04:14:10.411Z,101746.39
2018-07-27T04:16:38.423Z,101752.55
2018-07-27T04:19:06.024Z,101753.48
2018-07-27T04:21:33.650Z,101750.56
2018-07-27T04:24:01.302Z,101745.19
2018-07-27T04:26:29.217Z,101751.83
2018-07-27T04:28:57.171Z,101751.55
2018-07-27T04:31:25.449Z,101748.25
2018-07-27T04:33:53.068Z,101754.89
2018-07-27T04:36:20.965Z,101754.77
2018-07-27T04:38:49.211Z,101759.08
2018-07-27T04:41:16.942Z,101756.53
2018-07-27T04:43:44.913Z,101759.56
2018-07-27T04:46:12.845Z,101753.17
2018-07-27T04:48:40.605Z,101756.55
2018-07-27T04:51:08.279Z,101757.66
2018-07-27T04:53:36.418Z,101759.44
2018-07-27T04:56:04.575Z,101758.13
2018-07-27T04:58:32.560Z,101762.22
2018-07-27T05:01:00.675Z,101763.88
2018-07-27T05:03:28.324Z,101763.92
2018-07-27T05:05:56.316Z,101761.88
2018-07-27T05:08:23.984Z,101755.80
2018-07-27T05:10:51.898Z,101757.94
2018-07-27T05:13:20.211Z,101762.88
2018-07-27T05:15:48.994Z,101768.25
2018-07-27T05:18:17.914Z,101767.25
2018-07-27T05:20:45.688Z,101775.39
2018-07-27T05:23:13.834Z,101770.20
2018-07-27T05:25:41.643Z,101769.41
2018-07-27T05:28:10.090Z,101771.83
2018-07-27T05:30:37.764Z,101771.31
2018-07-27T05:33:06.185Z,101766.64
2018-07-27T05:35:34.090Z,101767.78
2018-07-27T05:38:02.254Z,101774.17
2018-07-27T05:40:30.213Z,101772.05
2018-07-27T05:42:58.184Z,101767.67
2018-07-27T05:45:25.871Z,101766.34
2018-07-27T05:47:53.540Z,101770.50
2018-07-27T05:50:21.789Z,101767.00
2018-07-27T05:52:49.736Z,101767.26
2018-07-27T05:55:17.329Z,101774.48
2018-07-27T05:57:45.257Z,101768.13
2018-07-27T06:00:12.952Z,101769.39
2018-07-27T06:02:40.664Z,101770.05
2018-07-27T06:05:08.387Z,101762.94
2018-07-27T06:07:36.201Z,101764.30
2018-07-27T06:10:04.717Z,101771.77
2018-07-27T06:12:32.447Z,101769.76
2018-07-27T06:15:00.183Z,101767.03
2018-07-27T06:17:28.280Z,101767.03
2018-07-27T06:19:56.377Z,101768.43
2018-07-27T06:22:24.358Z,101764.95
2018-07-27T06:24:55.736Z,101761.87
2018-07-27T06:27:23.397Z,101763.45
2018-07-27T06:29:51.089Z,101764.64
2018-07-27T06:32:19.209Z,101675.10
2018-07-27T06:34:46.990Z,101761.08
2018-07-27T06:37:15.314Z,101762.04
2018-07-27T06:39:44.976Z,101761.09
2018-07-27T06:42:12.831Z,101761.97
2018-07-27T06:44:40.495Z,101758.69
2018-07-27T06:47:08.197Z,101758.38
2018-07-27T06:49:36.117Z,101756.70
2018-07-27T06:52:04.149Z,101748.53
2018-07-27T06:54:32.102Z,101745.31
2018-07-27T06:57:00.711Z,101747.52
2018-07-27T06:59:28.740Z,101747.84
2018-07-27T07:01:56.349Z,101743.14
2018-07-27T07:04:24.073Z,101752.02
2018-07-27T07:06:52.953Z,101745.74
2018-07-27T07:09:20.584Z,101751.14
2018-07-27T07:11:48.316Z,101746.44
2018-07-27T07:14:15.982Z,101746.83
2018-07-27T07:16:43.661Z,101742.45
2018-07-27T07:19:11.354Z,101745.11
2018-07-27T07:21:39.056Z,101746.13
2018-07-27T07:24:07.627Z,101751.77
2018-07-27T07:26:35.422Z,101745.85
2018-07-27T07:29:03.162Z,101753.53
2018-07-27T07:31:30.825Z,101745.85
2018-07-27T07:33:58.589Z,101747.57
2018-07-27T07:36:26.235Z,101740.98
2018-07-27T07:38:54.195Z,101739.27
2018-07-27T07:41:21.982Z,101739.58
2018-07-27T07:43:49.854Z,101739.02
2018-07-27T07:46:17.506Z,101736.81
2018-07-27T07:48:45.465Z,101742.00
2018-07-27T07:51:13.088Z,101731.73
2018-07-27T07:53:40.721Z,101731.27
2018-07-27T07:56:08.422Z,101730.56
2018-07-27T07:58:36.068Z,101730.56
2018-07-27T08:01:04.105Z,101738.00
2018-07-27T08:03:31.793Z,101734.24
2018-07-27T08:05:59.517Z,101732.91
2018-07-27T08:08:27.403Z,101733.92
2018-07-27T08:10:55.420Z,101727.05
2018-07-27T08:13:23.458Z,101729.47
2018-07-27T08:15:51.442Z,101729.01
2018-07-27T08:18:19.444Z,101719.53
2018-07-27T08:20:47.115Z,101719.43
2018-07-27T08:23:14.740Z,101721.95
2018-07-27T08:27:09.096Z,101712.40
2018-07-27T08:29:39.803Z,101713.97
2018-07-27T08:32:07.528Z,101704.79
2018-07-27T08:34:35.513Z,101704.79
2018-07-27T08:37:03.171Z,101705.17
2018-07-27T08:39:32.230Z,101706.50
2018-07-27T08:41:59.866Z,101699.20
2018-07-27T08:44:28.865Z,101698.81
2018-07-27T08:46:56.857Z,101692.47
2018-07-27T08:49:24.756Z,101687.94
2018-07-27T08:51:52.748Z,101687.22
2018-07-27T08:54:20.401Z,101689.73
2018-07-27T08:56:48.080Z,101686.27
2018-07-27T08:59:15.770Z,101685.28
2018-07-27T09:01:43.450Z,101689.20
2018-07-27T09:04:11.190Z,101683.69
2018-07-27T09:06:38.858Z,101683.07
2018-07-27T09:09:10.346Z,101680.60
2018-07-27T09:11:38.251Z,101677.40
2018-07-27T09:14:06.264Z,101680.38
2018-07-27T09:16:34.141Z,101671.91
2018-07-27T09:19:02.055Z,101674.39
2018-07-27T09:21:29.709Z,101669.36
2018-07-27T09:23:57.701Z,101663.41
2018-07-27T09:26:26.159Z,101664.97
2018-07-27T09:28:53.861Z,101663.44
2018-07-27T09:31:21.969Z,101657.19
2018-07-27T09:33:50.154Z,101654.11
2018-07-27T09:36:18.304Z,101663.28
2018-07-27T09:38:45.974Z,101653.79
2018-07-27T09:41:13.975Z,101657.59
2018-07-27T09:43:41.653Z,101657.44
2018-07-27T09:46:09.559Z,101652.98
2018-07-27T09:48:37.852Z,101652.70
2018-07-27T09:51:05.606Z,101655.59
2018-07-27T09:53:33.442Z,101656.80
2018-07-27T09:56:01.216Z,101650.34
2018-07-27T09:58:29.365Z,101649.77
2018-07-27T10:01:02.628Z,101652.86
2018-07-27T10:03:30.302Z,101646.48
2018-07-27T10:05:57.999Z,101648.11
2018-07-27T10:08:26.304Z,101642.20
2018-07-27T10:10:54.394Z,101639.37
2018-07-27T10:13:22.522Z,101644.13
2018-07-27T10:15:50.750Z,101636.53
2018-07-27T10:18:18.585Z,101643.01
2018-07-27T10:20:46.354Z,101638.84
2018-07-27T10:23:15.516Z,101635.59
2018-07-27T10:25:43.711Z,101624.83
2018-07-27T10:28:11.553Z,101623.91
2018-07-27T10:30:39.446Z,101623.25
2018-07-27T10:33:07.826Z,101617.82
2018-07-27T10:35:35.490Z,101613.61
2018-07-27T10:38:04.851Z,101613.36
2018-07-27T10:40:32.477Z,101616.24
2018-07-27T10:43:00.128Z,101608.98
2018-07-27T10:45:27.833Z,101608.35
2018-07-27T10:47:55.741Z,101607.77
2018-07-27T10:50:23.717Z,101608.97
2018-07-27T10:52:51.405Z,101610.59
2018-07-27T10:55:19.659Z,101610.02
2018-07-27T10:57:47.848Z,101611.09
2018-07-27T11:00:16.467Z,101605.17
2018-07-27T11:02:44.371Z,101602.79
2018-07-27T11:05:13.251Z,101595.94
2018-07-27T11:07:41.336Z,101599.39
2018-07-27T11:10:09.981Z,101594.80
2018-07-27T11:12:37.920Z,101593.38
2018-07-27T11:15:06.879Z,101586.61
2018-07-27T11:17:35.103Z,101585.06
2018-07-27T11:20:02.878Z,101584.05
2018-07-27T11:22:30.565Z,101573.66
2018-07-27T11:24:58.589Z,101573.85
2018-07-27T11:27:26.530Z,101570.59
2018-07-27T11:29:54.180Z,101569.26
2018-07-27T11:32:21.944Z,101565.25
2018-07-27T11:34:49.957Z,101568.67
2018-07-27T11:37:17.934Z,101562.77
2018-07-27T11:39:45.640Z,101563.44
2018-07-27T11:42:13.365Z,101558.38
2018-07-27T11:44:40.960Z,101555.14
2018-07-27T11:47:08.621Z,101553.22
2018-07-27T11:49:36.905Z,101547.35
2018-07-27T11:52:05.020Z,101542.75
2018-07-27T11:54:32.638Z,101541.61
2018-07-27T11:57:00.561Z,101538.94
2018-07-27T11:59:28.530Z,101530.17
2018-07-27T12:01:56.745Z,101535.52
2018-07-27T12:04:24.386Z,101531.57
2018-07-27T12:06:52.112Z,101536.27
2018-07-27T12:09:19.808Z,101527.02
2018-07-27T12:11:47.846Z,101527.66
2018-07-27T12:14:16.224Z,101517.16
2018-07-27T12:16:43.944Z,101513.89
2018-07-27T12:19:11.826Z,101516.84
2018-07-27T12:21:39.619Z,101515.41
2018-07-27T12:24:07.462Z,101512.18
2018-07-27T12:26:35.370Z,101503.66
2018-07-27T12:29:02.994Z,101503.94
2018-07-27T12:31:30.993Z,101498.40
2018-07-27T12:33:58.893Z,101502.22
2018-07-27T12:36:26.889Z,101496.88
2018-07-27T12:38:54.554Z,101487.87
2018-07-27T12:41:22.440Z,101475.38
2018-07-27T12:43:51.024Z,101479.53
2018-07-27T12:46:18.635Z,101474.87
2018-07-27T12:48:46.319Z,101473.38
2018-07-27T12:51:14.348Z,101470.47
2018-07-27T12:53:42.339Z,101470.28
2018-07-27T12:56:09.953Z,101465.58
2018-07-27T12:58:37.677Z,101457.34
2018-07-27T13:01:05.340Z,101457.63
2018-07-27T13:03:33.006Z,101451.67
2018-07-27T13:06:00.682Z,101448.34
2018-07-27T13:08:28.443Z,101447.27
2018-07-27T13:10:56.439Z,101455.11
2018-07-27T13:13:24.131Z,101441.12
2018-07-27T13:15:52.138Z,101443.09
2018-07-27T13:18:19.749Z,101442.44
2018-07-27T13:20:54.443Z,101442.70
2018-07-27T13:23:22.547Z,101433.61
2018-07-27T13:28:31.768Z,101420.76
2018-07-27T13:30:59.692Z,101422.73
2018-07-27T13:33:28.058Z,101422.16
2018-07-27T13:35:56.516Z,101432.20
2018-07-27T13:38:24.619Z,101431.23
2018-07-27T13:40:52.261Z,101425.68
2018-07-27T13:43:19.978Z,101424.50
2018-07-27T13:45:48.408Z,101415.88
2018-07-27T13:48:16.309Z,101416.03
2018-07-27T13:50:44.403Z,101412.28
2018-07-27T13:53:12.597Z,101409.20
2018-07-27T13:55:40.269Z,101404.10
2018-07-27T13:58:08.411Z,101395.97
2018-07-27T14:00:36.418Z,101395.73
2018-07-27T14:03:04.053Z,101395.98
2018-07-27T14:05:32.030Z,101393.10
2018-07-27T14:08:00.053Z,101389.75
2018-07-27T14:10:27.692Z,101388.67
2018-07-27T14:12:55.502Z,101392.45
2018-07-27T14:15:23.506Z,101391.27
2018-07-27T14:17:51.563Z,101387.07
2018-07-27T14:20:19.250Z,101391.61
2018-07-27T14:22:47.624Z,101379.86
2018-07-27T14:25:15.234Z,101375.80
2018-07-27T14:27:43.123Z,101374.80
2018-07-27T14:30:11.106Z,101364.19
2018-07-27T14:32:39.289Z,101362.16
2018-07-27T14:35:07.180Z,101366.38
2018-07-27T14:37:34.911Z,101363.78
2018-07-27T14:40:02.581Z,101362.75
2018-07-27T14:42:30.507Z,101363.38
2018-07-27T14:44:58.254Z,101368.16
2018-07-27T14:47:25.853Z,101361.50
2018-07-27T14:49:53.849Z,101361.58
2018-07-27T14:52:21.498Z,101359.78
2018-07-27T14:54:49.377Z,101357.95
2018-07-27T14:57:17.070Z,101357.95
2018-07-27T14:59:44.923Z,101362.39
2018-07-27T15:02:12.610Z,101361.72
2018-07-27T15:04:40.574Z,101355.73
2018-07-27T15:07:08.578Z,101353.06
2018-07-27T15:09:37.227Z,101339.39
2018-07-27T15:12:04.850Z,101340.92
2018-07-27T15:14:32.958Z,101328.45
2018-07-27T15:17:00.949Z,101338.95
2018-07-27T15:19:28.560Z,101337.08
2018-07-27T15:21:56.529Z,101335.18
2018-07-27T15:24:24.539Z,101331.13
2018-07-27T15:26:52.171Z,101339.09
2018-07-27T15:29:19.835Z,101338.36
2018-07-27T15:31:48.177Z,101341.64
2018-07-27T15:34:16.032Z,101336.51
2018-07-27T15:36:43.953Z,101337.32
2018-07-27T15:39:11.626Z,101334.87
2018-07-27T15:41:39.279Z,101331.92
2018-07-27T15:44:06.931Z,101322.27
2018-07-27T15:46:34.946Z,101327.04
2018-07-27T15:49:02.565Z,101329.00
2018-07-27T15:51:30.362Z,101331.69
2018-07-27T15:53:58.261Z,101323.63
2018-07-27T15:56:26.041Z,101320.55
2018-07-27T15:58:53.741Z,101316.52
2018-07-27T16:01:21.418Z,101316.46
2018-07-27T16:03:49.163Z,101313.64
2018-07-27T16:06:16.917Z,101316.44
2018-07-27T16:08:44.546Z,101315.34
2018-07-27T16:11:12.286Z,101312.25
2018-07-27T16:13:40.008Z,101314.59
2018-07-27T16:16:08.566Z,101311.78
2018-07-27T16:18:36.561Z,101310.89
2018-07-27T16:21:04.567Z,101305.78
2018-07-27T16:23:32.527Z,101306.56
2018-07-27T16:26:00.164Z,101302.17
2018-07-27T16:28:28.500Z,101303.38
2018-07-27T16:30:56.154Z,101301.31
2018-07-27T16:33:24.181Z,101302.30
2018-07-27T16:35:52.688Z,101306.68
2018-07-27T16:38:20.559Z,101304.98
2018-07-27T16:40:48.301Z,101302.52
2018-07-27T16:43:16.348Z,101301.91
2018-07-27T16:45:44.140Z,101302.61
2018-07-27T16:48:11.833Z,101302.47
2018-07-27T16:50:39.860Z,101297.61
2018-07-27T16:53:07.520Z,101299.81
2018-07-27T16:55:35.209Z,101300.67
2018-07-27T16:58:02.876Z,101293.75
2018-07-27T17:00:30.538Z,101293.09
2018-07-27T17:02:58.581Z,101301.55
2018-07-27T17:05:26.508Z,101294.94
2018-07-27T17:07:54.435Z,101289.83
2018-07-27T17:10:22.090Z,101296.79
2018-07-27T17:12:49.797Z,101294.03
2018-07-27T17:15:18.011Z,101292.66
2018-07-27T17:17:45.654Z,101296.45
2018-07-27T17:20:13.663Z,101290.22
2018-07-27T17:22:41.371Z,101289.23
2018-07-27T17:25:09.044Z,101288.77
2018-07-27T17:27:37.160Z,101291.69
2018-07-27T17:30:06.129Z,101294.02
2018-07-27T17:32:34.769Z,101298.16
2018-07-27T17:35:02.553Z,101290.44
2018-07-27T17:37:30.508Z,101286.88
2018-07-27T17:39:58.169Z,101282.09
2018-07-27T17:42:25.829Z,101281.34
2018-07-27T17:44:53.900Z,101276.70
2018-07-27T17:47:21.808Z,101286.12
2018-07-27T17:49:49.496Z,101290.15
2018-07-27T17:52:17.231Z,101292.48
2018-07-27T17:54:45.085Z,101287.70
2018-07-27T17:57:13.003Z,101287.34
2018-07-27T17:59:41.263Z,101291.37
2018-07-27T18:02:08.954Z,101286.99
2018-07-27T18:04:36.576Z,101292.61
2018-07-27T18:07:04.462Z,101280.75
2018-07-27T18:09:32.048Z,101291.63
2018-07-27T18:12:00.099Z,101294.09
2018-07-27T18:14:28.060Z,101292.62
2018-07-27T18:16:55.824Z,101295.20
2018-07-27T18:19:23.714Z,101289.47
2018-07-27T18:21:51.562Z,101293.23
2018-07-27T18:24:19.572Z,101295.45
2018-07-27T18:26:47.475Z,101293.16
2018-07-27T18:29:15.487Z,101293.86
2018-07-27T18:31:43.712Z,101293.03
2018-07-27T18:34:11.382Z,101291.20
2018-07-27T18:36:39.228Z,101298.79
2018-07-27T18:39:09.357Z,101299.26
2018-07-27T18:41:37.250Z,101299.41
2018-07-27T18:44:05.024Z,101302.55
2018-07-27T18:46:32.743Z,101301.67
2018-07-27T18:49:00.373Z,101298.63
2018-07-27T18:51:28.045Z,101296.16
2018-07-27T18:53:55.775Z,101292.26
2018-07-27T18:56:23.724Z,101288.33
2018-07-27T18:58:51.418Z,101289.41
2018-07-27T19:01:19.755Z,101286.69
2018-07-27T19:03:47.453Z,101285.19
2018-07-27T19:06:15.510Z,101287.23
2018-07-27T19:08:43.157Z,101279.78
2018-07-27T19:11:10.874Z,101277.29
2018-07-27T19:13:38.755Z,101284.59
2018-07-27T19:16:06.868Z,101281.40
2018-07-27T19:18:34.527Z,101286.70
2018-07-27T19:21:02.458Z,101284.48
2018-07-27T19:23:30.224Z,101280.43
2018-07-27T19:25:58.199Z,101283.80
2018-07-27T19:28:25.902Z,101279.78
2018-07-27T19:30:53.605Z,101285.00
2018-07-27T19:33:21.910Z,101286.19
2018-07-27T19:35:49.832Z,101289.19
2018-07-27T19:38:17.811Z,101280.27
2018-07-27T19:40:46.086Z,101286.36
2018-07-27T19:43:13.786Z,101284.86
2018-07-27T19:45:41.482Z,101287.72
2018-07-27T19:48:09.353Z,101284.89
2018-07-27T19:50:37.336Z,101287.78
2018-07-27T19:53:05.661Z,101282.77
2018-07-27T19:55:33.646Z,101284.80
2018-07-27T19:58:01.284Z,101269.07
2018-07-27T20:00:28.989Z,101273.80
2018-07-27T20:02:56.913Z,101273.05
2018-07-27T20:05:24.559Z,101268.50
2018-07-27T20:07:52.868Z,101266.03
2018-07-27T20:10:20.824Z,101267.62
2018-07-27T20:12:48.454Z,101266.59
2018-07-27T20:15:16.487Z,101268.14
2018-07-27T20:17:44.430Z,101264.73
2018-07-27T20:20:12.134Z,101265.44
2018-07-27T20:22:40.058Z,101265.14
2018-07-27T20:25:07.981Z,101257.79
2018-07-27T20:27:35.646Z,101256.95
2018-07-27T20:30:03.681Z,101257.16
2018-07-27T20:32:31.321Z,101253.25
2018-07-27T20:34:59.011Z,101250.78
2018-07-27T20:37:26.665Z,101249.17
2018-07-27T20:39:54.331Z,101249.28
2018-07-27T20:42:22.031Z,101243.56
2018-07-27T20:44:49.979Z,101247.20
2018-07-27T20:47:17.708Z,101243.30
2018-07-27T20:49:45.353Z,101245.70
2018-07-27T20:52:13.323Z,101252.50
2018-07-27T20:54:41.633Z,101252.61
2018-07-27T20:57:09.335Z,101244.67
2018-07-27T20:59:37.014Z,101247.95
2018-07-27T21:02:05.211Z,101243.94
2018-07-27T21:04:33.209Z,101247.70
2018-07-27T21:07:01.109Z,101239.40
2018-07-27T21:09:28.725Z,101234.16
2018-07-27T21:11:56.970Z,101227.56
2018-07-27T21:14:25.212Z,101229.97
2018-07-27T21:16:53.221Z,101234.95
2018-07-27T21:19:20.841Z,101234.59
2018-07-27T21:21:48.917Z,101237.37
2018-07-27T21:24:16.544Z,101232.12
2018-07-27T21:26:44.707Z,101227.34
2018-07-27T21:29:12.689Z,101224.66
2018-07-27T21:31:40.433Z,101220.52
2018-07-27T21:34:08.120Z,101222.33
2018-07-27T21:36:35.824Z,101220.69
2018-07-27T21:39:05.953Z,101215.73
2018-07-27T21:41:33.581Z,101220.32
2018-07-27T21:44:01.245Z,101222.59
2018-07-27T21:46:29.190Z,101216.01
2018-07-27T21:48:57.485Z,101220.16
2018-07-27T21:51:25.154Z,101216.71
2018-07-27T21:53:53.056Z,101212.80
2018-07-27T21:56:20.750Z,101204.77
2018-07-27T21:58:48.427Z,101218.66
2018-07-27T22:01:16.416Z,101221.06
2018-07-27T22:03:44.417Z,101217.15
2018-07-27T22:06:12.420Z,101211.90
2018-07-27T22:08:40.057Z,101209.23
2018-07-27T22:11:07.718Z,101209.33
2018-07-27T22:13:35.388Z,101208.09
2018-07-27T22:16:03.067Z,101202.38
2018-07-27T22:18:31.051Z,101211.27
2018-07-27T22:20:58.935Z,101217.08
2018-07-27T22:23:26.921Z,101215.01
2018-07-27T22:25:54.834Z,101209.26
2018-07-27T22:28:22.457Z,101206.05
2018-07-27T22:30:50.158Z,101214.34
2018-07-27T22:33:18.101Z,101217.98
2018-07-27T22:35:45.749Z,101212.73
2018-07-27T22:38:13.396Z,101218.19
2018-07-27T22:40:41.122Z,101219.15
2018-07-27T22:43:08.966Z,101213.80
2018-07-27T22:45:36.618Z,101218.42
2018-07-27T22:48:04.457Z,101222.52
2018-07-27T22:50:32.125Z,101222.99
2018-07-27T22:52:59.762Z,101222.63
2018-07-27T22:55:27.757Z,101227.97
2018-07-27T22:57:55.434Z,101223.19
2018-07-27T23:00:23.749Z,101219.18
2018-07-27T23:02:51.420Z,101215.41
2018-07-27T23:05:19.342Z,101219.87
2018-07-27T23:07:47.032Z,101220.37
2018-07-27T23:10:15.000Z,101215.23
2018-07-27T23:12:42.642Z,101217.41
2018-07-27T23:15:11.694Z,101217.91
2018-07-27T23:17:39.417Z,101208.17
2018-07-27T23:20:10.737Z,101213.13
2018-07-27T23:22:38.911Z,101215.06
2018-07-27T23:25:07.227Z,101210.68
2018-07-27T23:27:35.307Z,101207.61
2018-07-27T23:30:03.022Z,101211.61
2018-07-27T23:32:30.646Z,101212.11
2018-07-27T23:34:58.667Z,101218.43
2018-07-27T23:37:26.617Z,101215.85
2018-07-27T23:39:54.589Z,101217.19
2018-07-27T23:42:22.449Z,101219.86
2018-07-27T23:44:50.049Z,101217.19
2018-07-27T23:47:17.723Z,101214.52
2018-07-27T23:49:45.649Z,101215.05
2018-07-27T23:52:13.312Z,101207.63
2018-07-27T23:54:41.011Z,101204.59
2018-07-27T23:57:08.675Z,101201.04
2018-07-27T23:59:36.274Z,101199.80
